N210QS LOWS-LFPB
Flight info
| Callsign | N210QS |
|---|---|
| Flight time | 1h 24m |
| Altitude | 40000 |
| Route | TRAUN L856 HOC DCT MOROK DCT PENDU DCT JAVVU DCT DJL |
| Aircraft | CL60/M-SBDE1E2E3FGHIJ1J4J5J7M3RWXYZ/LB1V1D1 |
Departure
| Time | 2026-05-07 20:39 |
|---|---|
| Airport | Salzburg Airport (LOWS) |
Arrival
| Time | 2026-05-07 22:03 |
|---|---|
| Airport | Paris-Le Bourget International Airport (LFPB) |
| Time | Latitude | Longitude | Altitude | Speed | Heading |
|---|---|---|---|---|---|
| 2026-05-07 20:10 | 47.79232 | 13.00076 | 1421 ft | 0 kts | 101° |
| 2026-05-07 20:34 | 47.79232 | 13.00079 | 1421 ft | 1 kts | 116° |
| 2026-05-07 20:34 | 47.79211 | 13.00050 | 1422 ft | 6 kts | 241° |
| 2026-05-07 20:34 | 47.79160 | 13.00020 | 1422 ft | 11 kts | 154° |
| 2026-05-07 20:34 | 47.79092 | 13.00069 | 1421 ft | 11 kts | 159° |
| 2026-05-07 20:35 | 47.79008 | 13.00119 | 1421 ft | 14 kts | 157° |
| 2026-05-07 20:35 | 47.78954 | 13.00235 | 1421 ft | 16 kts | 99° |
| 2026-05-07 20:35 | 47.78940 | 13.00373 | 1420 ft | 13 kts | 141° |
| 2026-05-07 20:35 | 47.78846 | 13.00433 | 1420 ft | 16 kts | 158° |
| 2026-05-07 20:36 | 47.78735 | 13.00503 | 1419 ft | 18 kts | 154° |
| 2026-05-07 20:36 | 47.78606 | 13.00587 | 1419 ft | 21 kts | 157° |
| 2026-05-07 20:36 | 47.78464 | 13.00676 | 1418 ft | 23 kts | 157° |
| 2026-05-07 20:36 | 47.78364 | 13.00740 | 1418 ft | 15 kts | 156° |
| 2026-05-07 20:37 | 47.78256 | 13.00810 | 1417 ft | 18 kts | 156° |
| 2026-05-07 20:37 | 47.78180 | 13.00959 | 1417 ft | 20 kts | 84° |
| 2026-05-07 20:37 | 47.78220 | 13.01092 | 1417 ft | 11 kts | 21° |
| 2026-05-07 20:37 | 47.78274 | 13.01065 | 1417 ft | 0 kts | 336° |
| 2026-05-07 20:38 | 47.78282 | 13.01060 | 1417 ft | 12 kts | 336° |
| 2026-05-07 20:38 | 47.78651 | 13.00826 | 1418 ft | 107 kts | 336° |
| 2026-05-07 20:38 | 47.79600 | 13.00250 | 1619 ft | 172 kts | 338° |
| 2026-05-07 20:39 | 47.80741 | 12.99569 | 2468 ft | 190 kts | 338° |
| 2026-05-07 20:39 | 47.81998 | 12.98708 | 3198 ft | 211 kts | 326° |
| 2026-05-07 20:39 | 47.82941 | 12.97053 | 3890 ft | 211 kts | 300° |
| 2026-05-07 20:39 | 47.83645 | 12.95188 | 4598 ft | 210 kts | 300° |
| 2026-05-07 20:40 | 47.84409 | 12.93195 | 5306 ft | 240 kts | 300° |
| 2026-05-07 20:40 | 47.85267 | 12.90961 | 5997 ft | 261 kts | 299° |
| 2026-05-07 20:40 | 47.86165 | 12.88623 | 6948 ft | 262 kts | 298° |
| 2026-05-07 20:40 | 47.87062 | 12.86289 | 7944 ft | 266 kts | 299° |
| 2026-05-07 20:41 | 47.87978 | 12.83905 | 8939 ft | 271 kts | 299° |
| 2026-05-07 20:41 | 47.88913 | 12.81471 | 9965 ft | 274 kts | 299° |
| 2026-05-07 20:41 | 47.89849 | 12.79032 | 10963 ft | 278 kts | 298° |
| 2026-05-07 20:41 | 47.90814 | 12.76518 | 11955 ft | 281 kts | 298° |
| 2026-05-07 20:42 | 47.91777 | 12.73998 | 12961 ft | 293 kts | 298° |
| 2026-05-07 20:42 | 47.92786 | 12.71304 | 13940 ft | 306 kts | 298° |
| 2026-05-07 20:42 | 47.93834 | 12.68502 | 14965 ft | 317 kts | 298° |
| 2026-05-07 20:42 | 47.94923 | 12.65588 | 15779 ft | 332 kts | 298° |
| 2026-05-07 20:43 | 47.96068 | 12.62519 | 16525 ft | 347 kts | 298° |
| 2026-05-07 20:43 | 47.97013 | 12.59224 | 17299 ft | 357 kts | 284° |
| 2026-05-07 20:43 | 47.97188 | 12.55492 | 18052 ft | 367 kts | 265° |
| 2026-05-07 20:43 | 47.96845 | 12.51690 | 18796 ft | 375 kts | 263° |
| 2026-05-07 20:44 | 47.96486 | 12.47870 | 19528 ft | 381 kts | 263° |
| 2026-05-07 20:44 | 47.96121 | 12.43960 | 20315 ft | 383 kts | 263° |
| 2026-05-07 20:44 | 47.95754 | 12.40028 | 21057 ft | 386 kts | 263° |
| 2026-05-07 20:44 | 47.95379 | 12.36035 | 21815 ft | 390 kts | 263° |
| 2026-05-07 20:45 | 47.95001 | 12.32030 | 22594 ft | 395 kts | 262° |
| 2026-05-07 20:45 | 47.94619 | 12.27987 | 23398 ft | 399 kts | 262° |
| 2026-05-07 20:45 | 47.94235 | 12.23931 | 24185 ft | 402 kts | 262° |
| 2026-05-07 20:45 | 47.93842 | 12.19802 | 24941 ft | 405 kts | 262° |
| 2026-05-07 20:46 | 47.93441 | 12.15653 | 25606 ft | 409 kts | 262° |
| 2026-05-07 20:46 | 47.93030 | 12.11417 | 26248 ft | 413 kts | 262° |
| 2026-05-07 20:46 | 47.92620 | 12.07193 | 26824 ft | 417 kts | 262° |
| 2026-05-07 20:46 | 47.92200 | 12.02903 | 27392 ft | 420 kts | 262° |
| 2026-05-07 20:47 | 47.91781 | 11.98623 | 27900 ft | 424 kts | 262° |
| 2026-05-07 20:47 | 47.91353 | 11.94276 | 28397 ft | 427 kts | 262° |
| 2026-05-07 20:47 | 47.90918 | 11.89874 | 28892 ft | 430 kts | 262° |
| 2026-05-07 20:47 | 47.90485 | 11.85517 | 29368 ft | 432 kts | 262° |
| 2026-05-07 20:48 | 47.90043 | 11.81079 | 29861 ft | 433 kts | 262° |
| 2026-05-07 20:48 | 47.89607 | 11.76692 | 30421 ft | 431 kts | 262° |
| 2026-05-07 20:48 | 47.89171 | 11.72304 | 31067 ft | 427 kts | 262° |
| 2026-05-07 20:48 | 47.88740 | 11.67988 | 31687 ft | 423 kts | 262° |
| 2026-05-07 20:49 | 47.88308 | 11.63674 | 32231 ft | 420 kts | 262° |
| 2026-05-07 20:49 | 47.87884 | 11.59467 | 32731 ft | 416 kts | 262° |
| 2026-05-07 20:49 | 47.87458 | 11.55245 | 33201 ft | 413 kts | 262° |
| 2026-05-07 20:49 | 47.87031 | 11.51029 | 33561 ft | 412 kts | 262° |
| 2026-05-07 20:50 | 47.86603 | 11.46823 | 33929 ft | 410 kts | 262° |
| 2026-05-07 20:50 | 47.86177 | 11.42644 | 34262 ft | 409 kts | 262° |
| 2026-05-07 20:50 | 47.85753 | 11.38505 | 34584 ft | 408 kts | 262° |
| 2026-05-07 20:50 | 47.85321 | 11.34312 | 34873 ft | 409 kts | 261° |
| 2026-05-07 20:51 | 47.84889 | 11.30126 | 35152 ft | 409 kts | 261° |
| 2026-05-07 20:51 | 47.84457 | 11.25959 | 35421 ft | 410 kts | 261° |
| 2026-05-07 20:51 | 47.84026 | 11.21824 | 35703 ft | 410 kts | 261° |
| 2026-05-07 20:51 | 47.83588 | 11.17626 | 35979 ft | 410 kts | 261° |
| 2026-05-07 20:52 | 47.83152 | 11.13471 | 36245 ft | 410 kts | 261° |
| 2026-05-07 20:52 | 47.82711 | 11.09281 | 36500 ft | 410 kts | 261° |
| 2026-05-07 20:52 | 47.82270 | 11.05139 | 36719 ft | 411 kts | 261° |
| 2026-05-07 20:53 | 47.81365 | 10.96682 | 36893 ft | 415 kts | 261° |
| 2026-05-07 20:53 | 47.80912 | 10.92469 | 37103 ft | 416 kts | 261° |
| 2026-05-07 20:53 | 47.80459 | 10.88275 | 37340 ft | 417 kts | 261° |
| 2026-05-07 20:53 | 47.80000 | 10.84038 | 37589 ft | 417 kts | 261° |
| 2026-05-07 20:54 | 47.79540 | 10.79808 | 37828 ft | 417 kts | 261° |
| 2026-05-07 20:54 | 47.79073 | 10.75529 | 38054 ft | 416 kts | 261° |
| 2026-05-07 20:54 | 47.78614 | 10.71340 | 38249 ft | 417 kts | 261° |
| 2026-05-07 20:54 | 47.78148 | 10.67089 | 38440 ft | 418 kts | 261° |
| 2026-05-07 20:55 | 47.77679 | 10.62840 | 38643 ft | 418 kts | 261° |
| 2026-05-07 20:55 | 47.77211 | 10.58608 | 38834 ft | 418 kts | 261° |
| 2026-05-07 20:55 | 47.76734 | 10.54323 | 39009 ft | 418 kts | 261° |
| 2026-05-07 20:55 | 47.76266 | 10.50123 | 39187 ft | 419 kts | 261° |
| 2026-05-07 20:56 | 47.75786 | 10.45826 | 39359 ft | 419 kts | 261° |
| 2026-05-07 20:56 | 47.75315 | 10.41631 | 39538 ft | 418 kts | 261° |
| 2026-05-07 20:56 | 47.74832 | 10.37344 | 39706 ft | 418 kts | 261° |
| 2026-05-07 20:56 | 47.74486 | 10.33088 | 39855 ft | 419 kts | 266° |
| 2026-05-07 20:57 | 47.74387 | 10.28761 | 39991 ft | 419 kts | 267° |
| 2026-05-07 20:57 | 47.74298 | 10.24428 | 40100 ft | 421 kts | 267° |
| 2026-05-07 20:57 | 47.74203 | 10.20047 | 40092 ft | 423 kts | 267° |
| 2026-05-07 20:58 | 47.74008 | 10.11355 | 40085 ft | 427 kts | 267° |
| 2026-05-07 20:58 | 47.73801 | 10.02507 | 40082 ft | 431 kts | 267° |
| 2026-05-07 20:59 | 47.73585 | 9.93609 | 40082 ft | 433 kts | 267° |
| 2026-05-07 20:59 | 47.73363 | 9.84728 | 40089 ft | 433 kts | 267° |
| 2026-05-07 21:00 | 47.73133 | 9.75839 | 40085 ft | 432 kts | 267° |
| 2026-05-07 21:00 | 47.72935 | 9.68423 | 40075 ft | 432 kts | 267° |
| 2026-05-07 21:01 | 47.72648 | 9.58076 | 40073 ft | 432 kts | 267° |
| 2026-05-07 21:01 | 47.72392 | 9.49162 | 40082 ft | 432 kts | 267° |
| 2026-05-07 21:02 | 47.72136 | 9.40318 | 40072 ft | 432 kts | 267° |
| 2026-05-07 21:02 | 47.71897 | 9.31445 | 40082 ft | 432 kts | 266° |
| 2026-05-07 21:03 | 47.71648 | 9.22521 | 40085 ft | 431 kts | 266° |
| 2026-05-07 21:03 | 47.71375 | 9.13633 | 40099 ft | 431 kts | 266° |
| 2026-05-07 21:04 | 47.71090 | 9.04777 | 40104 ft | 432 kts | 266° |
| 2026-05-07 21:04 | 47.70797 | 8.95942 | 40091 ft | 432 kts | 266° |
| 2026-05-07 21:05 | 47.70496 | 8.87061 | 40093 ft | 431 kts | 266° |
| 2026-05-07 21:05 | 47.70188 | 8.78177 | 40095 ft | 431 kts | 266° |
| 2026-05-07 21:06 | 47.69876 | 8.69382 | 40087 ft | 431 kts | 266° |
| 2026-05-07 21:06 | 47.69554 | 8.60502 | 40084 ft | 431 kts | 266° |
| 2026-05-07 21:07 | 47.69228 | 8.51692 | 40079 ft | 430 kts | 266° |
| 2026-05-07 21:07 | 47.68704 | 8.44354 | 40061 ft | 431 kts | 258° |
| 2026-05-07 21:08 | 47.66365 | 8.34616 | 40063 ft | 431 kts | 247° |
| 2026-05-07 21:08 | 47.64021 | 8.26445 | 40061 ft | 432 kts | 247° |
| 2026-05-07 21:09 | 47.61683 | 8.18311 | 40055 ft | 431 kts | 248° |
| 2026-05-07 21:09 | 47.59335 | 8.10164 | 40054 ft | 431 kts | 247° |
| 2026-05-07 21:10 | 47.57377 | 8.03391 | 40066 ft | 430 kts | 247° |
| 2026-05-07 21:10 | 47.55023 | 7.95274 | 40054 ft | 430 kts | 247° |
| 2026-05-07 21:11 | 47.52667 | 7.87172 | 40050 ft | 430 kts | 247° |
| 2026-05-07 21:11 | 47.48730 | 7.73690 | 40063 ft | 430 kts | 247° |
| 2026-05-07 21:12 | 47.46967 | 7.66875 | 40056 ft | 430 kts | 255° |
| 2026-05-07 21:12 | 47.46101 | 7.58178 | 40052 ft | 431 kts | 264° |
| 2026-05-07 21:13 | 47.45519 | 7.49389 | 40053 ft | 431 kts | 264° |
| 2026-05-07 21:13 | 47.44929 | 7.40607 | 40056 ft | 431 kts | 264° |
| 2026-05-07 21:14 | 47.44233 | 7.30358 | 40050 ft | 430 kts | 263° |
| 2026-05-07 21:14 | 47.43734 | 7.23076 | 40043 ft | 430 kts | 263° |
| 2026-05-07 21:15 | 47.43129 | 7.14334 | 40051 ft | 429 kts | 263° |
| 2026-05-07 21:15 | 47.42522 | 7.05650 | 40052 ft | 430 kts | 263° |
| 2026-05-07 21:16 | 47.41902 | 6.96876 | 40043 ft | 430 kts | 263° |
| 2026-05-07 21:16 | 47.41174 | 6.86686 | 40040 ft | 431 kts | 263° |
| 2026-05-07 21:17 | 47.40541 | 6.77935 | 40045 ft | 431 kts | 263° |
| 2026-05-07 21:17 | 47.40004 | 6.70582 | 40038 ft | 431 kts | 263° |
| 2026-05-07 21:18 | 47.39359 | 6.61830 | 40036 ft | 431 kts | 263° |
| 2026-05-07 21:18 | 47.38710 | 6.53109 | 40045 ft | 430 kts | 263° |
| 2026-05-07 21:19 | 47.37946 | 6.42950 | 40050 ft | 430 kts | 263° |
| 2026-05-07 21:19 | 47.37279 | 6.34192 | 40037 ft | 430 kts | 262° |
| 2026-05-07 21:20 | 47.36719 | 6.26897 | 40048 ft | 431 kts | 262° |
| 2026-05-07 21:20 | 47.36042 | 6.18155 | 40038 ft | 431 kts | 262° |
| 2026-05-07 21:21 | 47.35358 | 6.09422 | 40040 ft | 431 kts | 262° |
| 2026-05-07 21:21 | 47.34542 | 5.99230 | 40039 ft | 431 kts | 262° |
| 2026-05-07 21:22 | 47.33942 | 5.91986 | 40044 ft | 430 kts | 262° |
| 2026-05-07 21:22 | 47.33093 | 5.81779 | 40022 ft | 431 kts | 262° |
| 2026-05-07 21:23 | 47.32506 | 5.74519 | 40035 ft | 431 kts | 262° |
| 2026-05-07 21:23 | 47.31676 | 5.64337 | 40044 ft | 431 kts | 262° |
| 2026-05-07 21:24 | 47.31074 | 5.57020 | 40041 ft | 432 kts | 262° |
| 2026-05-07 21:24 | 47.30350 | 5.48305 | 40037 ft | 432 kts | 262° |
| 2026-05-07 21:25 | 47.29617 | 5.39548 | 40041 ft | 432 kts | 262° |
| 2026-05-07 21:25 | 47.29248 | 5.35180 | 39932 ft | 434 kts | 262° |
| 2026-05-07 21:25 | 47.28880 | 5.30714 | 39464 ft | 436 kts | 263° |
| 2026-05-07 21:26 | 47.28742 | 5.26324 | 38942 ft | 434 kts | 269° |
| 2026-05-07 21:26 | 47.28946 | 5.21916 | 38330 ft | 432 kts | 275° |
| 2026-05-07 21:26 | 47.29744 | 5.16194 | 37526 ft | 430 kts | 284° |
| 2026-05-07 21:26 | 47.30366 | 5.13405 | 37109 ft | 430 kts | 288° |
| 2026-05-07 21:27 | 47.31558 | 5.09399 | 36506 ft | 430 kts | 294° |
| 2026-05-07 21:27 | 47.33051 | 5.05608 | 35970 ft | 432 kts | 300° |
| 2026-05-07 21:27 | 47.34843 | 5.02059 | 35324 ft | 436 kts | 307° |
| 2026-05-07 21:27 | 47.36911 | 4.98836 | 34690 ft | 439 kts | 313° |
| 2026-05-07 21:28 | 47.39242 | 4.95950 | 33934 ft | 440 kts | 319° |
| 2026-05-07 21:28 | 47.42429 | 4.92335 | 33070 ft | 435 kts | 319° |
| 2026-05-07 21:28 | 47.44020 | 4.90525 | 32676 ft | 433 kts | 319° |
| 2026-05-07 21:28 | 47.46413 | 4.87797 | 32086 ft | 437 kts | 319° |
| 2026-05-07 21:29 | 47.48827 | 4.85043 | 31504 ft | 440 kts | 319° |
| 2026-05-07 21:29 | 47.51251 | 4.82274 | 30908 ft | 442 kts | 319° |
| 2026-05-07 21:29 | 47.53680 | 4.79496 | 30325 ft | 444 kts | 320° |
| 2026-05-07 21:29 | 47.56931 | 4.75774 | 29535 ft | 445 kts | 320° |
| 2026-05-07 21:30 | 47.59329 | 4.73027 | 28961 ft | 441 kts | 320° |
| 2026-05-07 21:30 | 47.60934 | 4.71186 | 28575 ft | 436 kts | 320° |
| 2026-05-07 21:30 | 47.63306 | 4.68463 | 28001 ft | 428 kts | 320° |
| 2026-05-07 21:30 | 47.65625 | 4.65798 | 27440 ft | 420 kts | 320° |
| 2026-05-07 21:31 | 47.67902 | 4.63178 | 26889 ft | 413 kts | 320° |
| 2026-05-07 21:31 | 47.70141 | 4.60599 | 26349 ft | 406 kts | 320° |
| 2026-05-07 21:31 | 47.72345 | 4.58056 | 25819 ft | 401 kts | 320° |
| 2026-05-07 21:31 | 47.75269 | 4.54678 | 25178 ft | 397 kts | 320° |
| 2026-05-07 21:32 | 47.76695 | 4.53028 | 24914 ft | 395 kts | 320° |
| 2026-05-07 21:32 | 47.78853 | 4.50530 | 24530 ft | 393 kts | 320° |
| 2026-05-07 21:32 | 47.81014 | 4.48026 | 24072 ft | 392 kts | 320° |
| 2026-05-07 21:32 | 47.83124 | 4.45578 | 23640 ft | 389 kts | 320° |
| 2026-05-07 21:33 | 47.85247 | 4.43113 | 23206 ft | 386 kts | 320° |
| 2026-05-07 21:33 | 47.87353 | 4.40665 | 22775 ft | 383 kts | 320° |
| 2026-05-07 21:33 | 47.89446 | 4.38230 | 22348 ft | 381 kts | 320° |
| 2026-05-07 21:33 | 47.91523 | 4.35809 | 21923 ft | 379 kts | 320° |
| 2026-05-07 21:34 | 47.93576 | 4.33415 | 21499 ft | 376 kts | 319° |
| 2026-05-07 21:34 | 47.95619 | 4.31031 | 21086 ft | 373 kts | 319° |
| 2026-05-07 21:34 | 47.97675 | 4.28629 | 20661 ft | 371 kts | 319° |
| 2026-05-07 21:34 | 47.99685 | 4.26278 | 20256 ft | 368 kts | 319° |
| 2026-05-07 21:35 | 48.01682 | 4.23939 | 19841 ft | 366 kts | 319° |
| 2026-05-07 21:35 | 48.03667 | 4.21613 | 19428 ft | 364 kts | 320° |
| 2026-05-07 21:35 | 48.05664 | 4.19269 | 19030 ft | 363 kts | 319° |
| 2026-05-07 21:35 | 48.07635 | 4.16955 | 18620 ft | 361 kts | 320° |
| 2026-05-07 21:36 | 48.09587 | 4.14661 | 18227 ft | 357 kts | 320° |
| 2026-05-07 21:36 | 48.11538 | 4.12367 | 17817 ft | 352 kts | 320° |
| 2026-05-07 21:36 | 48.13438 | 4.10131 | 17426 ft | 346 kts | 320° |
| 2026-05-07 21:36 | 48.15297 | 4.07941 | 17046 ft | 339 kts | 320° |
| 2026-05-07 21:37 | 48.17138 | 4.05770 | 16670 ft | 332 kts | 320° |
| 2026-05-07 21:37 | 48.18924 | 4.03663 | 16302 ft | 327 kts | 320° |
| 2026-05-07 21:37 | 48.20696 | 4.01570 | 15942 ft | 320 kts | 320° |
| 2026-05-07 21:37 | 48.22419 | 3.99533 | 15586 ft | 315 kts | 320° |
| 2026-05-07 21:38 | 48.24110 | 3.97531 | 15241 ft | 309 kts | 320° |
| 2026-05-07 21:38 | 48.25739 | 3.95436 | 14891 ft | 306 kts | 313° |
| 2026-05-07 21:38 | 48.27190 | 3.93159 | 14477 ft | 305 kts | 311° |
| 2026-05-07 21:38 | 48.28645 | 3.90855 | 13995 ft | 305 kts | 312° |
| 2026-05-07 21:39 | 48.30096 | 3.88560 | 13569 ft | 302 kts | 312° |
| 2026-05-07 21:39 | 48.31528 | 3.86296 | 13150 ft | 299 kts | 312° |
| 2026-05-07 21:39 | 48.32948 | 3.84050 | 12732 ft | 296 kts | 312° |
| 2026-05-07 21:39 | 48.34365 | 3.81806 | 12321 ft | 294 kts | 312° |
| 2026-05-07 21:40 | 48.36226 | 3.78859 | 11781 ft | 290 kts | 312° |
| 2026-05-07 21:40 | 48.37131 | 3.77424 | 11521 ft | 289 kts | 312° |
| 2026-05-07 21:40 | 48.38525 | 3.75214 | 11117 ft | 289 kts | 312° |
| 2026-05-07 21:40 | 48.39886 | 3.73054 | 10716 ft | 289 kts | 312° |
| 2026-05-07 21:41 | 48.41261 | 3.70870 | 10319 ft | 287 kts | 312° |
| 2026-05-07 21:41 | 48.42630 | 3.68695 | 9918 ft | 286 kts | 312° |
| 2026-05-07 21:41 | 48.43992 | 3.66530 | 9526 ft | 285 kts | 312° |
| 2026-05-07 21:41 | 48.45355 | 3.64362 | 9130 ft | 284 kts | 312° |
| 2026-05-07 21:42 | 48.46702 | 3.62217 | 8745 ft | 282 kts | 312° |
| 2026-05-07 21:42 | 48.48047 | 3.60075 | 8436 ft | 278 kts | 313° |
| 2026-05-07 21:42 | 48.49366 | 3.57973 | 8223 ft | 277 kts | 313° |
| 2026-05-07 21:42 | 48.50694 | 3.55854 | 7956 ft | 280 kts | 313° |
| 2026-05-07 21:43 | 48.52018 | 3.53740 | 7663 ft | 278 kts | 313° |
| 2026-05-07 21:43 | 48.53336 | 3.51635 | 7377 ft | 277 kts | 313° |
| 2026-05-07 21:43 | 48.54659 | 3.49520 | 7104 ft | 276 kts | 313° |
| 2026-05-07 21:43 | 48.55967 | 3.47428 | 7030 ft | 276 kts | 313° |
| 2026-05-07 21:44 | 48.57283 | 3.45321 | 7033 ft | 276 kts | 313° |
| 2026-05-07 21:44 | 48.58604 | 3.43203 | 7031 ft | 277 kts | 313° |
| 2026-05-07 21:44 | 48.59925 | 3.41086 | 6743 ft | 280 kts | 313° |
| 2026-05-07 21:44 | 48.61260 | 3.38944 | 6363 ft | 277 kts | 313° |
| 2026-05-07 21:45 | 48.62565 | 3.36849 | 5991 ft | 274 kts | 314° |
| 2026-05-07 21:45 | 48.63866 | 3.34758 | 5614 ft | 272 kts | 313° |
| 2026-05-07 21:45 | 48.65143 | 3.32704 | 5241 ft | 270 kts | 313° |
| 2026-05-07 21:45 | 48.66427 | 3.30639 | 4978 ft | 267 kts | 313° |
| 2026-05-07 21:46 | 48.67696 | 3.28593 | 4945 ft | 269 kts | 313° |
| 2026-05-07 21:46 | 48.68985 | 3.26516 | 4948 ft | 270 kts | 313° |
| 2026-05-07 21:46 | 48.70271 | 3.24440 | 4951 ft | 270 kts | 313° |
| 2026-05-07 21:46 | 48.71543 | 3.22386 | 4953 ft | 270 kts | 313° |
| 2026-05-07 21:47 | 48.72837 | 3.20294 | 4954 ft | 270 kts | 313° |
| 2026-05-07 21:47 | 48.74114 | 3.18230 | 4952 ft | 271 kts | 313° |
| 2026-05-07 21:47 | 48.75402 | 3.16144 | 4952 ft | 271 kts | 313° |
| 2026-05-07 21:47 | 48.76680 | 3.14074 | 4951 ft | 271 kts | 313° |
| 2026-05-07 21:48 | 48.77963 | 3.11995 | 4955 ft | 271 kts | 313° |
| 2026-05-07 21:48 | 48.79242 | 3.09919 | 4955 ft | 270 kts | 313° |
| 2026-05-07 21:48 | 48.80534 | 3.07822 | 4953 ft | 270 kts | 313° |
| 2026-05-07 21:48 | 48.81804 | 3.05757 | 4951 ft | 270 kts | 313° |
| 2026-05-07 21:49 | 48.83093 | 3.03653 | 4947 ft | 270 kts | 312° |
| 2026-05-07 21:49 | 48.84074 | 3.01240 | 4952 ft | 270 kts | 289° |
| 2026-05-07 21:49 | 48.84325 | 2.98473 | 4956 ft | 270 kts | 267° |
| 2026-05-07 21:49 | 48.84179 | 2.95600 | 4951 ft | 270 kts | 265° |
| 2026-05-07 21:50 | 48.84032 | 2.92792 | 4951 ft | 271 kts | 265° |
| 2026-05-07 21:50 | 48.83884 | 2.89947 | 4947 ft | 270 kts | 265° |
| 2026-05-07 21:50 | 48.83734 | 2.87086 | 4956 ft | 271 kts | 265° |
| 2026-05-07 21:50 | 48.83585 | 2.84267 | 4957 ft | 271 kts | 265° |
| 2026-05-07 21:51 | 48.83434 | 2.81427 | 4955 ft | 271 kts | 265° |
| 2026-05-07 21:51 | 48.83281 | 2.78560 | 4961 ft | 271 kts | 265° |
| 2026-05-07 21:51 | 48.83129 | 2.75719 | 4955 ft | 271 kts | 265° |
| 2026-05-07 21:51 | 48.82975 | 2.72856 | 4953 ft | 271 kts | 265° |
| 2026-05-07 21:52 | 48.82822 | 2.70031 | 4954 ft | 271 kts | 265° |
| 2026-05-07 21:52 | 48.82667 | 2.67192 | 4969 ft | 271 kts | 265° |
| 2026-05-07 21:52 | 48.82510 | 2.64338 | 4974 ft | 271 kts | 265° |
| 2026-05-07 21:52 | 48.82355 | 2.61521 | 4970 ft | 271 kts | 265° |
| 2026-05-07 21:53 | 48.82196 | 2.58638 | 4973 ft | 271 kts | 265° |
| 2026-05-07 21:53 | 48.82038 | 2.55798 | 4970 ft | 271 kts | 265° |
| 2026-05-07 21:53 | 48.81881 | 2.52975 | 4968 ft | 272 kts | 265° |
| 2026-05-07 21:53 | 48.81722 | 2.50131 | 4970 ft | 272 kts | 265° |
| 2026-05-07 21:54 | 48.81560 | 2.47245 | 4971 ft | 272 kts | 265° |
| 2026-05-07 21:54 | 48.81398 | 2.44402 | 4852 ft | 272 kts | 265° |
| 2026-05-07 21:54 | 48.81235 | 2.41581 | 4495 ft | 267 kts | 265° |
| 2026-05-07 21:54 | 48.81068 | 2.38810 | 4130 ft | 262 kts | 264° |
| 2026-05-07 21:55 | 48.80893 | 2.36109 | 3765 ft | 259 kts | 264° |
| 2026-05-07 21:55 | 48.80805 | 2.33384 | 3390 ft | 255 kts | 277° |
| 2026-05-07 21:55 | 48.81301 | 2.30838 | 3052 ft | 250 kts | 291° |
| 2026-05-07 21:55 | 48.81907 | 2.28470 | 2977 ft | 235 kts | 292° |
| 2026-05-07 21:56 | 48.82479 | 2.26255 | 2995 ft | 218 kts | 292° |
| 2026-05-07 21:56 | 48.83024 | 2.24138 | 2987 ft | 216 kts | 291° |
| 2026-05-07 21:56 | 48.83569 | 2.22020 | 2986 ft | 214 kts | 292° |
| 2026-05-07 21:56 | 48.84111 | 2.19914 | 2975 ft | 215 kts | 292° |
| 2026-05-07 21:57 | 48.84659 | 2.17792 | 2971 ft | 216 kts | 292° |
| 2026-05-07 21:57 | 48.85518 | 2.15999 | 2967 ft | 213 kts | 324° |
| 2026-05-07 21:57 | 48.86777 | 2.14808 | 2971 ft | 212 kts | 332° |
| 2026-05-07 21:57 | 48.88070 | 2.13762 | 2967 ft | 211 kts | 342° |
| 2026-05-07 21:58 | 48.89437 | 2.13818 | 2968 ft | 192 kts | 27° |
| 2026-05-07 21:58 | 48.90244 | 2.15264 | 2972 ft | 182 kts | 77° |
| 2026-05-07 21:58 | 48.90178 | 2.17150 | 2985 ft | 179 kts | 99° |
| 2026-05-07 21:58 | 48.90212 | 2.19028 | 2978 ft | 180 kts | 77° |
| 2026-05-07 21:59 | 48.90640 | 2.20795 | 2981 ft | 172 kts | 68° |
| 2026-05-07 21:59 | 48.91089 | 2.22385 | 2917 ft | 162 kts | 69° |
| 2026-05-07 21:59 | 48.91513 | 2.23944 | 2717 ft | 158 kts | 69° |
| 2026-05-07 21:59 | 48.91915 | 2.25433 | 2553 ft | 141 kts | 69° |
| 2026-05-07 22:00 | 48.92279 | 2.26783 | 2370 ft | 138 kts | 69° |
| 2026-05-07 22:00 | 48.92641 | 2.28128 | 2169 ft | 136 kts | 69° |
| 2026-05-07 22:00 | 48.92997 | 2.29449 | 1990 ft | 134 kts | 70° |
| 2026-05-07 22:00 | 48.93340 | 2.30720 | 1817 ft | 129 kts | 70° |
| 2026-05-07 22:01 | 48.93678 | 2.31973 | 1641 ft | 128 kts | 70° |
| 2026-05-07 22:01 | 48.94015 | 2.33222 | 1470 ft | 127 kts | 69° |
| 2026-05-07 22:01 | 48.94351 | 2.34471 | 1295 ft | 128 kts | 69° |
| 2026-05-07 22:01 | 48.94690 | 2.35722 | 1111 ft | 127 kts | 68° |
| 2026-05-07 22:02 | 48.95027 | 2.36946 | 887 ft | 127 kts | 68° |
| 2026-05-07 22:02 | 48.95367 | 2.38210 | 756 ft | 129 kts | 67° |
| 2026-05-07 22:02 | 48.95702 | 2.39449 | 627 ft | 127 kts | 68° |
| 2026-05-07 22:02 | 48.96035 | 2.40694 | 447 ft | 127 kts | 68° |
| 2026-05-07 22:03 | 48.96360 | 2.41925 | 271 ft | 126 kts | 67° |
| 2026-05-07 22:03 | 48.96673 | 2.43103 | 165 ft | 108 kts | 67° |
| 2026-05-07 22:03 | 48.96869 | 2.43827 | 174 ft | 36 kts | 66° |
| 2026-05-07 22:03 | 48.96948 | 2.44125 | 178 ft | 22 kts | 79° |
| 2026-05-07 22:04 | 48.96910 | 2.44336 | 180 ft | 21 kts | 133° |
| 2026-05-07 22:04 | 48.96863 | 2.44390 | 179 ft | 0 kts | 153° |
| 2026-05-07 22:04 | 48.96849 | 2.44400 | 179 ft | 4 kts | 159° |
| 2026-05-07 22:05 | 48.96780 | 2.44431 | 178 ft | 14 kts | 158° |
| 2026-05-07 22:05 | 48.96672 | 2.44483 | 176 ft | 14 kts | 160° |
| 2026-05-07 22:05 | 48.96570 | 2.44522 | 174 ft | 15 kts | 163° |
| 2026-05-07 22:05 | 48.96466 | 2.44547 | 173 ft | 13 kts | 179° |
| 2026-05-07 22:06 | 48.96412 | 2.44546 | 172 ft | 0 kts | 179° |
| 2026-05-07 22:06 | 48.96400 | 2.44546 | 172 ft | 0 kts | 178° |
| 2026-05-07 22:06 | 48.96399 | 2.44546 | 172 ft | 1 kts | 178° |
| 2026-05-07 22:07 | 48.96368 | 2.44535 | 171 ft | 8 kts | 212° |
| 2026-05-07 22:07 | 48.96311 | 2.44494 | 168 ft | 10 kts | 205° |
| 2026-05-07 22:07 | 48.96247 | 2.44448 | 166 ft | 1 kts | 201° |
| 2026-05-07 22:07 | 48.96210 | 2.44424 | 165 ft | 10 kts | 205° |
| 2026-05-07 22:08 | 48.96120 | 2.44359 | 161 ft | 18 kts | 204° |
| 2026-05-07 22:08 | 48.96025 | 2.44294 | 157 ft | 14 kts | 207° |
| 2026-05-07 22:08 | 48.95944 | 2.44241 | 154 ft | 10 kts | 196° |
| 2026-05-07 22:08 | 48.95884 | 2.44277 | 154 ft | 14 kts | 86° |
| 2026-05-07 22:09 | 48.95897 | 2.44339 | 155 ft | 8 kts | 66° |
| 2026-05-07 22:09 | 48.95896 | 2.44363 | 155 ft | 0 kts | 173° |
| 2026-05-07 22:09 | 48.95891 | 2.44360 | 155 ft | 0 kts | 204° |
| 2026-05-07 22:09 | 48.95889 | 2.44359 | 155 ft | 0 kts | 202° |